Time;durP1;ratioP1;P1;durP2;ratioP2;P2;SDS_P1;SDS_P2;PMS_P1;PMS_P2;Temp;Humidity;BMP_temperature;BMP_pressure;BME280_temperature;BME280_humidity;BME280_pressure;Samples;Min_cycle;Max_cycle;Signal;HPM_P1;HPM_P2
2021/12/13 00:02:24;;;;;;;44.47;23.23;;;10.80;99.90;;;;;;5031764;28;20037;-81
2021/12/13 00:05:14;;;;;;;39.25;21.13;;;10.80;99.90;;;;;;5033178;28;20071;-81
2021/12/13 00:07:44;;;;;;;39.35;20.23;;;10.90;99.90;;;;;;5033433;28;20021;-80
2021/12/13 00:10:17;;;;;;;42.60;21.58;;;10.90;99.90;;;;;;5033111;28;20029;-81
2021/12/13 00:12:47;;;;;;;46.28;20.83;;;10.90;99.90;;;;;;5033237;28;20021;-81
2021/12/13 00:15:32;;;;;;;39.90;20.38;;;10.80;99.90;;;;;;5033118;28;20040;-81
2021/12/13 00:17:59;;;;;;;51.83;21.00;;;10.90;99.90;;;;;;5033415;28;20357;-81
2021/12/13 00:20:39;;;;;;;47.88;22.20;;;10.90;99.90;;;;;;5033067;28;20088;-81
2021/12/13 00:23:17;;;;;;;49.60;23.10;;;10.90;99.90;;;;;;5033312;28;20057;-82
2021/12/13 00:25:48;;;;;;;43.67;21.35;;;10.80;99.90;;;;;;5051224;28;20207;-82
2021/12/13 00:28:18;;;;;;;38.50;20.10;;;10.80;99.90;;;;;;5036924;28;20041;-76
2021/12/13 00:30:56;;;;;;;38.33;19.63;;;10.80;99.90;;;;;;5036901;28;20022;-80
2021/12/13 00:34:00;;;;;;;37.85;18.95;;;10.90;99.90;;;;;;5052111;28;20022;-79
2021/12/13 00:36:34;;;;;;;40.60;19.33;;;10.80;99.90;;;;;;5036882;28;20022;-82
2021/12/13 00:39:09;;;;;;;40.72;18.67;;;10.80;99.90;;;;;;5036704;28;20032;-81
2021/12/13 00:41:35;;;;;;;31.83;17.02;;;10.80;99.90;;;;;;5036966;28;20068;-80
2021/12/13 00:44:06;;;;;;;37.55;18.13;;;10.80;99.90;;;;;;5036881;28;20040;-81
2021/12/13 00:46:34;;;;;;;42.50;18.98;;;10.80;99.90;;;;;;5037205;28;20022;-81
2021/12/13 00:49:02;;;;;;;41.33;18.63;;;10.70;99.90;;;;;;5036806;28;20029;-82
2021/12/13 00:51:32;;;;;;;37.13;18.35;;;10.60;99.90;;;;;;5036834;28;20487;-81
2021/12/13 00:54:02;;;;;;;40.63;18.77;;;10.70;99.90;;;;;;5036961;28;20109;-81
2021/12/13 00:56:59;;;;;;;36.88;19.45;;;10.60;99.90;;;;;;5036734;28;20018;-81
2021/12/13 00:59:43;;;;;;;40.38;18.52;;;10.60;99.90;;;;;;5036696;28;20049;-81
2021/12/13 01:02:11;;;;;;;43.20;19.23;;;10.60;99.90;;;;;;5054143;28;20056;-81
2021/12/13 01:04:50;;;;;;;41.72;20.42;;;10.50;99.90;;;;;;5054930;28;20056;-79
2021/12/13 01:07:41;;;;;;;38.53;18.95;;;10.40;99.90;;;;;;5055199;28;20376;-81
2021/12/13 01:10:44;;;;;;;35.95;19.45;;;10.40;99.90;;;;;;5054803;28;20064;-81
2021/12/13 01:13:32;;;;;;;45.47;19.33;;;10.40;99.90;;;;;;5056366;28;20025;-81
2021/12/13 01:16:36;;;;;;;38.88;18.75;;;10.30;99.90;;;;;;5056190;28;20021;-82
2021/12/13 01:21:57;;;;;;;23.70;12.57;;;10.50;99.90;;;;;;5036181;28;20034;-81
2021/12/13 01:27:34;;;;;;;22.00;11.82;;;10.30;99.90;;;;;;5034110;28;20480;-81
2021/12/13 01:29:59;;;;;;;;;;;10.30;99.90;;;;;;5034602;28;20037;-81
2021/12/13 01:32:37;;;;;;;24.75;12.55;;;10.40;99.90;;;;;;5033719;28;20398;-81
2021/12/13 01:35:09;;;;;;;24.40;11.88;;;10.40;99.90;;;;;;5033825;28;20094;-81
2021/12/13 01:37:35;;;;;;;32.08;13.60;;;10.40;99.90;;;;;;5016253;28;20022;-81
2021/12/13 01:40:09;;;;;;;33.88;16.38;;;10.30;99.90;;;;;;5033676;28;20038;-81
2021/12/13 01:42:36;;;;;;;31.92;15.95;;;10.20;99.90;;;;;;5033797;28;20444;-81
2021/12/13 01:45:10;;;;;;;38.38;17.92;;;10.20;99.90;;;;;;5033781;28;20025;-81
2021/12/13 01:47:46;;;;;;;30.13;15.75;;;10.20;99.90;;;;;;5033791;28;20022;-81
2021/12/13 01:50:14;;;;;;;33.15;14.65;;;10.10;99.90;;;;;;5047611;28;20033;-82
2021/12/13 01:52:40;;;;;;;24.63;11.32;;;10.30;99.90;;;;;;5053153;28;20045;-81
2021/12/13 01:55:14;;;;;;;27.98;12.18;;;10.20;99.90;;;;;;5053518;28;20119;-81
2021/12/13 01:57:49;;;;;;;24.13;11.05;;;10.20;99.90;;;;;;5053683;28;20408;-81
2021/12/13 02:01:09;;;;;;;19.55;10.35;;;10.10;99.90;;;;;;5053475;28;20099;-80
2021/12/13 02:03:52;;;;;;;19.05;10.15;;;10.20;99.90;;;;;;5055377;28;20029;-80
2021/12/13 02:06:23;;;;;;;19.50;9.88;;;10.20;99.90;;;;;;5054304;28;20116;-80
2021/12/13 02:08:53;;;;;;;21.40;10.20;;;10.20;99.90;;;;;;5053729;28;20433;-80
2021/12/13 02:11:21;;;;;;;19.98;9.63;;;10.20;99.90;;;;;;5055383;28;20363;-80
2021/12/13 02:14:06;;;;;;;23.42;11.68;;;10.20;99.90;;;;;;5055300;28;20025;-80
2021/12/13 02:17:23;;;;;;;24.83;10.75;;;10.20;99.90;;;;;;5055399;28;20435;-80
2021/12/13 02:19:50;;;;;;;20.52;10.68;;;10.20;99.90;;;;;;5054126;28;20033;-80
2021/12/13 02:22:26;;;;;;;22.15;11.57;;;10.20;99.90;;;;;;5053969;28;20033;-80
2021/12/13 02:24:54;;;;;;;23.08;11.93;;;10.20;99.90;;;;;;5053749;28;20033;-80
2021/12/13 02:27:27;;;;;;;21.88;11.52;;;10.20;99.90;;;;;;5052560;28;20399;-80
2021/12/13 02:29:56;;;;;;;25.35;13.10;;;10.10;99.90;;;;;;5053441;28;20025;-80
2021/12/13 02:32:27;;;;;;;29.85;13.93;;;10.10;99.90;;;;;;5053859;28;20051;-80
2021/12/13 02:34:57;;;;;;;30.23;13.90;;;10.10;99.90;;;;;;5054825;28;20464;-80
2021/12/13 02:37:25;;;;;;;32.00;15.73;;;10.20;99.90;;;;;;5055084;28;20025;-80
2021/12/13 02:39:56;;;;;;;36.50;17.08;;;10.20;99.90;;;;;;5054388;28;20036;-80
2021/12/13 02:42:23;;;;;;;34.45;17.65;;;10.10;99.90;;;;;;5054713;28;20024;-80
2021/12/13 02:45:23;;;;;;;46.33;21.15;;;10.10;99.90;;;;;;5054488;28;20025;-80
2021/12/13 02:47:55;;;;;;;53.25;21.58;;;10.20;99.90;;;;;;5054155;28;20364;-80
2021/12/13 02:50:44;;;;;;;57.10;25.58;;;10.20;99.90;;;;;;5039783;28;20171;-80
2021/12/13 02:53:13;;;;;;;74.60;28.92;;;10.20;99.90;;;;;;5034349;28;20033;-80
2021/12/13 02:55:39;;;;;;;55.33;27.10;;;10.10;99.90;;;;;;5034280;28;20508;-80
2021/12/13 02:58:10;;;;;;;62.58;29.27;;;10.10;99.90;;;;;;5034470;28;20048;-80
2021/12/13 03:01:07;;;;;;;61.00;29.75;;;10.10;99.90;;;;;;5034194;28;20040;-80
2021/12/13 03:03:36;;;;;;;68.95;32.42;;;10.10;99.90;;;;;;5032843;28;20361;-80
2021/12/13 03:06:05;;;;;;;78.25;35.17;;;10.10;99.90;;;;;;5034463;28;20823;-80
2021/12/13 03:08:37;;;;;;;75.57;34.83;;;10.10;99.90;;;;;;5034603;28;20040;-80
2021/12/13 03:11:09;;;;;;;73.88;35.15;;;10.10;99.90;;;;;;5034285;28;20409;-80
2021/12/13 03:13:34;;;;;;;70.28;34.17;;;10.10;99.90;;;;;;5034108;28;20029;-80
2021/12/13 03:16:25;;;;;;;79.70;36.33;;;10.00;99.90;;;;;;5034350;28;20083;-80
2021/12/13 03:19:03;;;;;;;96.03;40.22;;;10.10;99.90;;;;;;5032628;28;20029;-80
2021/12/13 03:22:16;;;;;;;90.90;38.53;;;10.00;99.90;;;;;;5034103;28;20052;-80
2021/12/13 03:25:04;;;;;;;86.40;39.72;;;10.10;99.90;;;;;;5033748;28;20063;-80
2021/12/13 03:27:33;;;;;;;80.72;37.67;;;10.00;99.90;;;;;;5034027;28;20021;-80
2021/12/13 03:30:19;;;;;;;90.22;39.47;;;10.00;99.90;;;;;;5033919;28;20048;-81
2021/12/13 03:32:59;;;;;;;97.10;43.03;;;10.00;99.90;;;;;;5033681;28;20026;-80
2021/12/13 03:35:33;;;;;;;81.03;38.33;;;10.00;99.90;;;;;;5033621;28;20115;-80
2021/12/13 03:38:11;;;;;;;86.70;39.47;;;10.00;99.90;;;;;;5033861;28;20025;-80
2021/12/13 03:40:37;;;;;;;80.97;38.33;;;10.00;99.90;;;;;;5033412;28;20078;-80
2021/12/13 03:43:17;;;;;;;92.72;41.00;;;10.00;99.90;;;;;;5033840;28;20041;-80
2021/12/13 03:45:50;;;;;;;81.80;38.20;;;9.90;99.90;;;;;;5033282;28;20025;-80
2021/12/13 03:48:19;;;;;;;83.30;37.10;;;9.90;99.90;;;;;;5033534;28;20029;-80
2021/12/13 03:50:49;;;;;;;64.85;32.63;;;9.90;99.90;;;;;;5051125;28;20025;-80
2021/12/13 03:53:20;;;;;;;71.57;34.53;;;9.90;99.90;;;;;;5053375;28;20070;-80
2021/12/13 03:55:49;;;;;;;55.95;31.05;;;9.90;99.90;;;;;;5052182;28;20028;-80
2021/12/13 03:58:17;;;;;;;67.82;31.85;;;9.90;99.90;;;;;;5053346;28;20037;-80
2021/12/13 04:00:49;;;;;;;64.32;31.45;;;10.00;99.90;;;;;;5052757;28;20128;-80
2021/12/13 04:03:16;;;;;;;62.13;32.17;;;10.00;99.90;;;;;;5053244;28;20025;-80
2021/12/13 04:05:43;;;;;;;62.97;32.10;;;9.90;99.90;;;;;;5053529;28;20025;-80
2021/12/13 04:08:12;;;;;;;58.63;30.17;;;9.90;99.90;;;;;;5053183;28;20064;-80
2021/12/13 04:10:41;;;;;;;56.70;30.48;;;9.90;99.90;;;;;;5051967;28;20390;-80
2021/12/13 04:13:13;;;;;;;54.40;29.08;;;9.90;99.90;;;;;;5052905;28;20032;-80
2021/12/13 04:15:54;;;;;;;54.97;29.48;;;9.90;99.90;;;;;;5051954;28;20025;-80
2021/12/13 04:18:40;;;;;;;51.22;27.77;;;9.90;99.90;;;;;;5051474;28;20182;-78
2021/12/13 04:21:06;;;;;;;49.28;26.95;;;9.90;99.90;;;;;;5036285;28;20121;-80
2021/12/13 04:23:34;;;;;;;51.58;27.88;;;9.90;99.90;;;;;;5033097;28;20032;-80
2021/12/13 04:26:02;;;;;;;49.03;27.38;;;9.90;99.90;;;;;;5033047;28;20037;-80
2021/12/13 04:28:56;;;;;;;49.85;27.90;;;9.90;99.90;;;;;;5032733;28;20357;-80
2021/12/13 04:31:26;;;;;;;49.20;27.45;;;9.80;99.90;;;;;;5032689;28;20133;-80
2021/12/13 04:33:56;;;;;;;48.83;26.42;;;9.90;99.90;;;;;;5032729;28;20018;-80
2021/12/13 04:36:36;;;;;;;50.40;24.55;;;9.90;99.90;;;;;;5033055;28;20026;-80
2021/12/13 04:39:24;;;;;;;43.22;25.08;;;9.90;99.90;;;;;;5032671;28;20021;-80
2021/12/13 04:41:53;;;;;;;49.53;25.80;;;9.90;99.90;;;;;;5032995;28;20036;-81
2021/12/13 04:44:33;;;;;;;44.40;23.50;;;9.80;99.90;;;;;;5031498;28;20056;-80
2021/12/13 04:47:15;;;;;;;47.15;25.02;;;9.80;99.90;;;;;;5032857;28;20057;-80
2021/12/13 04:49:46;;;;;;;37.88;23.08;;;9.80;99.90;;;;;;5042199;28;20079;-80
2021/12/13 04:52:15;;;;;;;41.50;24.70;;;9.80;99.90;;;;;;5051189;28;20045;-80
2021/12/13 04:54:46;;;;;;;38.20;23.00;;;9.80;99.90;;;;;;5052393;28;20115;-80
2021/12/13 04:57:12;;;;;;;41.40;23.33;;;9.80;99.90;;;;;;5052737;28;20367;-80
2021/12/13 04:59:38;;;;;;;39.08;24.23;;;9.80;99.90;;;;;;5052453;28;20029;-80
2021/12/13 05:02:09;;;;;;;42.47;25.00;;;9.80;99.90;;;;;;5052481;28;20485;-80
2021/12/13 05:04:35;;;;;;;36.45;22.55;;;9.80;99.90;;;;;;5052209;28;20047;-80
2021/12/13 05:07:04;;;;;;;42.20;22.48;;;9.90;99.90;;;;;;5052429;28;20348;-81
2021/12/13 05:09:31;;;;;;;38.22;23.55;;;9.80;99.90;;;;;;5052345;28;20052;-81
2021/12/13 05:12:14;;;;;;;40.08;23.13;;;9.80;99.90;;;;;;5054999;28;20017;-80
2021/12/13 05:15:08;;;;;;;;;;;9.80;99.90;;;;;;5055586;28;20021;-80
2021/12/13 05:17:42;;;;;;;44.58;23.75;;;9.80;99.90;;;;;;5034053;28;19948;-81
2021/12/13 05:20:29;;;;;;;45.13;23.00;;;9.80;99.90;;;;;;5033733;28;20171;-80
2021/12/13 05:22:58;;;;;;;37.75;21.60;;;9.80;99.90;;;;;;5033744;28;20400;-81
2021/12/13 05:25:41;;;;;;;42.15;22.52;;;9.80;99.90;;;;;;5033727;28;20033;-81
2021/12/13 05:28:15;;;;;;;;;;;9.80;99.90;;;;;;5034194;28;20079;-81
2021/12/13 05:30:47;;;;;;;50.72;25.98;;;9.80;99.90;;;;;;5034104;28;19905;-80
2021/12/13 05:33:15;;;;;;;46.30;22.60;;;9.80;99.90;;;;;;5033936;28;20104;-80
2021/12/13 05:35:54;;;;;;;49.42;26.23;;;9.80;99.90;;;;;;5033612;28;20038;-80
2021/12/13 05:38:44;;;;;;;40.88;23.13;;;9.80;99.90;;;;;;5049966;28;20037;-80
2021/12/13 05:41:20;;;;;;;43.75;21.88;;;9.80;99.90;;;;;;5020111;28;20554;-79
2021/12/13 05:43:49;;;;;;;47.22;23.85;;;9.80;99.90;;;;;;5033458;28;20128;-80
2021/12/13 05:46:23;;;;;;;47.63;24.08;;;9.80;99.90;;;;;;5033394;28;20108;-80
2021/12/13 05:48:55;;;;;;;45.75;24.60;;;9.80;99.90;;;;;;5033129;28;20379;-80
2021/12/13 05:51:32;;;;;;;40.72;21.45;;;9.90;99.90;;;;;;5049412;28;20084;-80
2021/12/13 05:54:12;;;;;;;44.25;23.40;;;9.80;99.90;;;;;;5033724;28;20453;-79
2021/12/13 05:56:51;;;;;;;51.20;24.85;;;9.80;99.90;;;;;;5055461;28;20534;-80
2021/12/13 05:59:31;;;;;;;49.20;24.00;;;9.80;99.90;;;;;;5055437;28;20021;-80
2021/12/13 06:02:18;;;;;;;50.53;24.48;;;9.70;99.90;;;;;;5055609;28;20401;-80
2021/12/13 06:05:22;;;;;;;50.03;25.60;;;9.70;99.90;;;;;;5055136;28;20075;-80
2021/12/13 06:08:00;;;;;;;59.47;26.35;;;9.80;99.90;;;;;;5052997;28;20047;-80
2021/12/13 06:10:35;;;;;;;51.22;24.10;;;9.80;99.90;;;;;;5054801;28;20033;-80
2021/12/13 06:13:04;;;;;;;51.25;25.05;;;9.70;99.90;;;;;;5055220;28;20101;-80
2021/12/13 06:15:39;;;;;;;45.83;22.85;;;9.80;99.90;;;;;;5054869;28;20428;-79
2021/12/13 06:18:04;;;;;;;47.35;24.45;;;9.70;99.90;;;;;;5054937;28;20116;-80
2021/12/13 06:20:43;;;;;;;49.20;23.80;;;9.80;99.90;;;;;;5054615;28;20107;-80
2021/12/13 06:23:27;;;;;;;49.00;24.90;;;9.80;99.90;;;;;;5054112;28;20033;-80
2021/12/13 06:26:03;;;;;;;48.30;24.35;;;9.70;99.90;;;;;;5054691;28;20025;-80
2021/12/13 06:28:33;;;;;;;43.55;23.30;;;9.70;99.90;;;;;;5053202;28;20079;-79
2021/12/13 06:31:15;;;;;;;48.50;22.40;;;9.80;99.90;;;;;;5054405;28;20017;-79
2021/12/13 06:34:03;;;;;;;48.22;23.13;;;9.70;99.90;;;;;;5054603;28;20427;-80
2021/12/13 06:36:40;;;;;;;48.08;24.02;;;9.70;99.90;;;;;;5053981;28;20390;-80
2021/12/13 06:39:18;;;;;;;43.40;22.75;;;9.80;99.90;;;;;;5070232;28;20112;-80
2021/12/13 06:41:50;;;;;;;49.65;22.50;;;9.70;99.90;;;;;;5051786;28;20029;-83
2021/12/13 06:44:18;;;;;;;45.60;23.35;;;9.80;99.90;;;;;;5054672;28;20029;-82
2021/12/13 06:46:43;;;;;;;49.47;23.77;;;9.80;99.90;;;;;;5054023;28;20033;-80
2021/12/13 06:49:23;;;;;;;43.28;21.35;;;9.80;99.90;;;;;;5051283;28;20448;-80
2021/12/13 06:52:01;;;;;;;48.00;22.95;;;9.80;99.90;;;;;;5050512;28;20499;-80
2021/12/13 06:54:44;;;;;;;51.50;22.98;;;9.80;99.90;;;;;;5050443;28;20048;-80
2021/12/13 06:57:16;;;;;;;40.38;21.13;;;9.80;99.90;;;;;;5044159;28;20028;-79
2021/12/13 06:59:53;;;;;;;46.97;22.45;;;9.80;99.90;;;;;;5054963;28;20032;-79
2021/12/13 07:02:36;;;;;;;38.22;20.95;;;9.80;99.90;;;;;;5050837;28;20116;-82
2021/12/13 07:05:04;;;;;;;;;;;9.80;99.90;;;;;;5046507;28;20084;-78
2021/12/13 07:07:39;;;;;;;42.15;21.35;;;9.80;99.90;;;;;;5046205;28;19944;-78
2021/12/13 07:10:12;;;;;;;43.38;21.48;;;9.80;99.90;;;;;;5053856;28;20107;-79
2021/12/13 07:12:45;;;;;;;42.38;21.63;;;9.80;99.90;;;;;;5052464;28;20032;-83
2021/12/13 07:15:37;;;;;;;41.30;20.85;;;9.80;99.90;;;;;;5052382;28;20025;-84
2021/12/13 07:18:08;;;;;;;44.25;22.70;;;9.70;99.90;;;;;;5053734;28;20044;-86
2021/12/13 07:20:45;;;;;;;42.80;20.50;;;9.70;99.90;;;;;;5042695;28;20022;-86
2021/12/13 07:23:11;;;;;;;41.03;20.13;;;9.70;99.90;;;;;;5033870;28;20017;-83
2021/12/13 07:25:39;;;;;;;40.55;19.27;;;9.80;99.90;;;;;;5033704;28;20376;-83
2021/12/13 07:28:07;;;;;;;44.95;21.13;;;9.80;99.90;;;;;;5033651;28;20022;-84
2021/12/13 07:30:36;;;;;;;37.22;19.50;;;9.80;99.90;;;;;;5033998;28;20018;-84
2021/12/13 07:33:06;;;;;;;38.97;20.05;;;9.80;99.90;;;;;;5032332;28;20109;-85
2021/12/13 07:35:43;;;;;;;39.80;20.15;;;9.70;99.90;;;;;;5032742;28;20049;-82
2021/12/13 07:38:18;;;;;;;52.20;21.85;;;9.80;99.90;;;;;;5033391;28;20081;-85
2021/12/13 07:40:56;;;;;;;45.05;21.70;;;9.80;99.90;;;;;;5032074;28;20032;-82
2021/12/13 07:43:37;;;;;;;45.78;21.35;;;9.70;99.90;;;;;;5033396;28;20076;-80
2021/12/13 07:46:12;;;;;;;40.95;21.13;;;9.70;99.90;;;;;;5033211;28;20036;-80
2021/12/13 07:48:40;;;;;;;46.55;20.95;;;9.80;99.90;;;;;;5032706;28;20029;-79
2021/12/13 07:51:15;;;;;;;42.60;21.77;;;9.70;99.90;;;;;;5032638;28;20057;-80
2021/12/13 07:53:46;;;;;;;42.85;20.73;;;9.70;99.90;;;;;;5032112;28;20029;-81
2021/12/13 07:56:21;;;;;;;43.97;21.47;;;9.70;99.90;;;;;;5033378;28;20025;-81
2021/12/13 07:58:51;;;;;;;42.50;20.38;;;9.80;99.90;;;;;;5048568;28;20034;-80
2021/12/13 08:01:24;;;;;;;45.10;21.20;;;9.70;99.90;;;;;;5033518;28;20026;-80
2021/12/13 08:04:00;;;;;;;43.50;20.98;;;9.70;99.90;;;;;;5033697;28;20036;-81
2021/12/13 08:06:34;;;;;;;39.05;20.35;;;9.80;99.90;;;;;;5033531;28;20025;-80
2021/12/13 08:09:05;;;;;;;44.80;20.58;;;9.80;99.90;;;;;;5033140;28;20106;-79
2021/12/13 08:11:40;;;;;;;39.80;19.27;;;9.80;99.90;;;;;;5032936;28;20124;-83
2021/12/13 08:14:06;;;;;;;42.85;20.13;;;9.80;99.90;;;;;;5042751;28;20029;-84
2021/12/13 08:16:45;;;;;;;48.78;21.70;;;9.80;99.90;;;;;;5052930;28;20383;-85
2021/12/13 08:19:25;;;;;;;45.45;21.42;;;9.80;99.90;;;;;;5053040;28;20025;-84
2021/12/13 08:21:59;;;;;;;44.65;21.50;;;9.80;99.90;;;;;;5031609;28;20163;-84
2021/12/13 08:24:38;;;;;;;46.38;21.83;;;9.80;99.90;;;;;;5032898;28;20033;-84
2021/12/13 08:27:25;;;;;;;42.17;20.73;;;9.80;99.90;;;;;;5031592;28;20032;-83
2021/12/13 08:30:02;;;;;;;41.25;20.45;;;9.80;99.90;;;;;;5032895;28;20022;-85
2021/12/13 08:32:28;;;;;;;38.63;19.60;;;9.80;99.90;;;;;;5032791;28;20503;-83
2021/12/13 08:34:59;;;;;;;39.63;20.77;;;9.80;99.90;;;;;;5032741;28;20058;-84
2021/12/13 08:37:33;;;;;;;37.60;19.05;;;9.80;99.90;;;;;;5032839;28;20037;-84
2021/12/13 08:40:08;;;;;;;39.83;20.05;;;9.80;99.90;;;;;;5032926;28;20391;-84
2021/12/13 08:42:38;;;;;;;33.60;19.15;;;9.80;99.90;;;;;;5032704;28;20025;-82
2021/12/13 08:45:06;;;;;;;31.55;17.48;;;9.80;99.90;;;;;;5033102;28;20112;-83
2021/12/13 08:47:48;;;;;;;42.25;20.25;;;9.80;99.90;;;;;;5035393;28;20116;-83
2021/12/13 08:50:20;;;;;;;36.28;19.35;;;9.80;99.90;;;;;;5036622;28;20388;-84
2021/12/13 08:52:52;;;;;;;35.10;18.52;;;9.80;99.90;;;;;;5036577;28;20037;-84
2021/12/13 08:55:24;;;;;;;39.85;19.10;;;9.80;99.90;;;;;;5036539;28;20064;-84
2021/12/13 08:57:58;;;;;;;34.05;17.63;;;9.80;99.90;;;;;;5036944;28;20425;-83
2021/12/13 09:00:38;;;;;;;41.13;19.52;;;9.80;99.90;;;;;;5045812;28;20017;-84
2021/12/13 09:03:25;;;;;;;35.75;18.50;;;9.80;99.90;;;;;;5054951;28;20025;-84
2021/12/13 09:06:12;;;;;;;35.35;17.77;;;9.80;99.90;;;;;;5055968;28;20092;-82
2021/12/13 09:09:03;;;;;;;35.35;17.98;;;9.80;99.90;;;;;;5054887;28;20033;-84
2021/12/13 09:11:38;;;;;;;35.25;16.83;;;9.90;99.90;;;;;;5062564;28;20025;-80
2021/12/13 09:14:14;;;;;;;32.50;17.70;;;9.80;99.90;;;;;;5076017;28;20028;-82
2021/12/13 09:16:43;;;;;;;34.58;17.17;;;9.80;99.90;;;;;;5076190;28;20075;-83
2021/12/13 09:19:18;;;;;;;36.70;18.15;;;9.90;99.90;;;;;;5075733;28;20113;-82
2021/12/13 09:22:04;;;;;;;35.25;17.77;;;9.90;99.90;;;;;;5036427;28;20026;-81
2021/12/13 09:24:37;;;;;;;32.72;16.48;;;9.90;99.90;;;;;;5048019;28;20025;-80
2021/12/13 09:27:35;;;;;;;33.20;15.68;;;9.90;99.90;;;;;;5056231;28;20033;-80
2021/12/13 09:30:11;;;;;;;32.90;16.25;;;9.90;99.90;;;;;;5016871;28;20033;-80
2021/12/13 09:32:43;;;;;;;28.23;15.40;;;9.90;99.90;;;;;;5034183;28;20045;-80
2021/12/13 09:35:23;;;;;;;34.50;16.52;;;9.90;99.90;;;;;;5033703;28;20049;-80
2021/12/13 09:37:51;;;;;;;30.98;15.10;;;9.90;99.90;;;;;;5033460;28;20037;-80
2021/12/13 09:40:24;;;;;;;28.30;14.77;;;9.90;99.90;;;;;;5033473;28;20037;-81
2021/12/13 09:42:53;;;;;;;26.10;14.70;;;9.90;99.90;;;;;;5033511;28;20037;-80
2021/12/13 09:45:38;;;;;;;31.05;15.57;;;9.90;99.90;;;;;;5017428;28;20025;-82
2021/12/13 09:48:53;;;;;;;32.00;15.32;;;9.90;99.90;;;;;;5033219;28;20037;-81
2021/12/13 09:51:24;;;;;;;31.83;14.82;;;10.00;99.90;;;;;;4954473;28;20068;-84
2021/12/13 09:53:52;;;;;;;31.23;14.20;;;10.00;99.90;;;;;;4955395;28;20398;-78
2021/12/13 09:56:21;;;;;;;27.00;14.85;;;10.00;99.90;;;;;;4955423;29;20163;-78
2021/12/13 09:58:56;;;;;;;26.92;14.00;;;10.00;99.90;;;;;;4954459;28;20431;-81
2021/12/13 10:01:33;;;;;;;27.05;13.10;;;10.00;99.90;;;;;;4955064;29;20050;-81
2021/12/13 10:04:05;;;;;;;27.05;13.75;;;10.00;99.90;;;;;;4954999;29;20033;-82
2021/12/13 10:06:38;;;;;;;23.40;13.20;;;10.00;99.90;;;;;;4960692;28;20683;-77
2021/12/13 10:09:34;;;;;;;23.95;13.25;;;10.00;99.90;;;;;;4973834;28;20054;-83
2021/12/13 10:12:43;;;;;;;24.02;12.48;;;10.00;99.90;;;;;;4990061;28;20135;-81
2021/12/13 10:15:27;;;;;;;20.85;12.82;;;10.00;99.90;;;;;;4953783;29;20047;-81
2021/12/13 10:18:00;;;;;;;25.55;13.35;;;10.00;99.90;;;;;;4953062;29;20502;-80
2021/12/13 10:20:38;;;;;;;23.48;12.38;;;10.10;99.90;;;;;;4972490;28;20073;-81
2021/12/13 10:23:09;;;;;;;26.13;12.20;;;10.10;99.90;;;;;;4976186;28;20077;-81
2021/12/13 10:25:43;;;;;;;22.87;12.67;;;10.20;99.90;;;;;;4976709;28;20030;-80
2021/12/13 10:28:14;;;;;;;23.52;12.45;;;10.20;99.90;;;;;;5025044;28;20301;-81
2021/12/13 10:30:49;;;;;;;25.50;12.77;;;10.10;99.90;;;;;;5052501;28;20445;-81
2021/12/13 10:33:18;;;;;;;27.02;11.65;;;10.20;99.90;;;;;;5035661;28;20044;-81
2021/12/13 10:35:44;;;;;;;21.67;11.80;;;10.20;99.90;;;;;;5052304;28;20028;-81
2021/12/13 10:38:14;;;;;;;19.63;11.40;;;10.30;99.90;;;;;;5052408;28;20112;-81
2021/12/13 10:41:04;;;;;;;17.13;10.68;;;10.20;99.90;;;;;;5035369;28;20483;-81
2021/12/13 10:43:41;;;;;;;24.13;11.05;;;10.30;99.90;;;;;;5052187;28;20444;-81
2021/12/13 10:46:15;;;;;;;18.73;10.90;;;10.20;99.90;;;;;;5052204;28;20041;-81
2021/12/13 10:48:45;;;;;;;17.83;10.63;;;10.20;99.90;;;;;;5035862;28;20135;-81
2021/12/13 10:51:24;;;;;;;18.02;11.27;;;10.20;99.90;;;;;;5052135;28;20032;-81
2021/12/13 10:53:52;;;;;;;17.10;10.18;;;10.20;99.90;;;;;;5054243;28;20021;-81
2021/12/13 10:56:22;;;;;;;21.88;11.30;;;10.20;99.90;;;;;;5036148;28;20025;-81
2021/12/13 10:58:53;;;;;;;19.20;11.23;;;10.30;99.90;;;;;;5054068;28;20025;-81
2021/12/13 11:01:26;;;;;;;20.52;11.70;;;10.30;99.90;;;;;;5053979;28;20444;-81
2021/12/13 11:03:54;;;;;;;20.15;10.68;;;10.30;99.90;;;;;;5054015;28;20056;-78
2021/12/13 11:06:22;;;;;;;17.27;10.48;;;10.40;99.90;;;;;;5052536;28;20380;-83
2021/12/13 11:08:49;;;;;;;20.20;10.00;;;10.30;99.90;;;;;;5054018;28;20039;-83
2021/12/13 11:11:35;;;;;;;19.38;11.40;;;10.30;99.90;;;;;;5054019;28;20374;-83
2021/12/13 11:14:05;;;;;;;17.60;10.45;;;10.30;99.90;;;;;;5053886;28;20024;-84
2021/12/13 11:16:35;;;;;;;17.48;9.60;;;10.30;99.90;;;;;;5053950;28;20025;-85
2021/12/13 11:19:12;;;;;;;18.45;9.43;;;10.40;99.90;;;;;;5054014;28;20320;-85
2021/12/13 11:21:43;;;;;;;16.52;9.68;;;10.30;99.90;;;;;;5034109;28;20018;-85
2021/12/13 11:24:13;;;;;;;16.48;9.70;;;10.40;99.90;;;;;;5034267;28;20028;-84
2021/12/13 11:26:43;;;;;;;15.30;9.68;;;10.40;99.90;;;;;;5034069;28;20030;-82
2021/12/13 11:29:11;;;;;;;16.98;9.55;;;10.40;99.90;;;;;;5033716;28;20075;-84
2021/12/13 11:31:55;;;;;;;23.70;10.43;;;10.40;99.90;;;;;;5050644;28;20482;-78
2021/12/13 11:34:45;;;;;;;17.02;9.23;;;10.40;99.90;;;;;;5048294;28;20028;-84
2021/12/13 11:37:11;;;;;;;17.30;10.65;;;10.50;99.90;;;;;;5052118;28;20017;-84
2021/12/13 11:40:15;;;;;;;16.48;9.93;;;10.40;99.90;;;;;;5053492;28;20036;-82
2021/12/13 11:43:18;;;;;;;20.92;9.57;;;10.50;99.90;;;;;;5045975;28;20029;-83
2021/12/13 11:46:02;;;;;;;;;;;10.50;99.90;;;;;;5033812;28;20025;-83
2021/12/13 11:48:50;;;;;;;16.27;9.10;;;10.50;99.90;;;;;;5031901;28;20450;-79
2021/12/13 11:52:01;;;;;;;23.42;10.07;;;10.40;99.90;;;;;;5033174;28;20036;-79
2021/12/13 11:54:47;;;;;;;14.68;9.30;;;10.50;99.90;;;;;;5032468;28;20041;-80
2021/12/13 11:57:28;;;;;;;19.08;9.63;;;10.40;99.90;;;;;;5035943;28;20021;-81
2021/12/13 12:00:03;;;;;;;17.15;9.38;;;10.50;99.90;;;;;;5040697;28;20033;-83
2021/12/13 12:02:56;;;;;;;16.15;9.35;;;10.50;99.90;;;;;;5040580;28;20487;-84
2021/12/13 12:05:58;;;;;;;24.17;10.18;;;10.50;99.90;;;;;;5038356;28;20494;-83
2021/12/13 12:08:33;;;;;;;;;;;10.60;99.90;;;;;;5039106;28;20033;-84
2021/12/13 12:11:39;;;;;;;16.35;8.30;;;10.60;99.90;;;;;;5041305;28;19955;-84
2021/12/13 12:14:14;;;;;;;14.57;8.60;;;10.60;99.90;;;;;;5041914;28;20036;-83
2021/12/13 12:16:43;;;;;;;13.07;8.63;;;10.60;99.90;;;;;;5047521;28;20191;-83
2021/12/13 12:19:15;;;;;;;18.77;7.90;;;10.50;99.90;;;;;;5043033;28;20032;-83
2021/12/13 12:21:53;;;;;;;14.88;7.80;;;10.50;99.90;;;;;;5036949;28;20411;-84
2021/12/13 12:24:35;;;;;;;16.85;8.65;;;10.50;99.90;;;;;;5038852;28;20183;-83
2021/12/13 12:27:05;;;;;;;17.13;9.10;;;10.50;99.90;;;;;;5040658;28;20033;-81
2021/12/13 12:29:34;;;;;;;16.33;9.30;;;10.50;99.90;;;;;;5047264;28;20033;-83
2021/12/13 12:32:08;;;;;;;14.70;8.65;;;10.50;99.90;;;;;;5051061;28;20036;-82
2021/12/13 12:34:46;;;;;;;14.57;8.48;;;10.50;99.90;;;;;;5053021;28;20475;-83
2021/12/13 12:37:33;;;;;;;17.63;7.60;;;10.50;99.90;;;;;;5052644;28;20021;-82
2021/12/13 12:40:28;;;;;;;17.52;8.95;;;10.50;99.90;;;;;;5052531;28;20112;-82
2021/12/13 12:42:58;;;;;;;14.73;8.50;;;10.50;99.90;;;;;;5032823;28;20409;-82
2021/12/13 12:45:42;;;;;;;12.63;8.25;;;10.50;99.90;;;;;;5033002;28;20033;-82
2021/12/13 12:48:16;;;;;;;18.33;7.93;;;10.40;99.90;;;;;;5040472;28;20021;-82
2021/12/13 12:50:54;;;;;;;13.27;7.80;;;10.40;99.90;;;;;;5050988;28;20104;-82
2021/12/13 12:53:49;;;;;;;18.13;8.48;;;10.40;99.90;;;;;;5064201;28;20056;-82
2021/12/13 12:56:24;;;;;;;18.60;8.18;;;10.40;99.90;;;;;;5046312;28;20017;-81
2021/12/13 12:58:57;;;;;;;14.57;8.15;;;10.40;99.90;;;;;;5052359;28;20117;-81
2021/12/13 13:01:28;;;;;;;15.32;7.78;;;10.40;99.90;;;;;;5051966;28;20468;-82
2021/12/13 13:04:11;;;;;;;16.87;8.77;;;10.40;99.90;;;;;;5052262;28;20517;-82
2021/12/13 13:06:46;;;;;;;;;;;10.40;99.90;;;;;;5050454;28;20103;-82
2021/12/13 13:09:12;;;;;;;13.65;7.93;;;10.50;99.90;;;;;;5050529;28;19999;-82
2021/12/13 13:11:37;;;;;;;14.27;8.68;;;10.50;99.90;;;;;;5050807;28;20558;-82
2021/12/13 13:14:17;;;;;;;13.73;7.53;;;10.50;99.90;;;;;;5050639;28;20120;-82
2021/12/13 13:16:50;;;;;;;15.45;8.95;;;10.40;99.90;;;;;;5032412;28;20060;-82
2021/12/13 13:19:46;;;;;;;17.55;8.57;;;10.40;99.90;;;;;;5044171;28;20510;-82
2021/12/13 13:22:18;;;;;;;16.13;8.00;;;10.50;99.90;;;;;;5010530;28;20077;-82
2021/12/13 13:24:52;;;;;;;12.07;8.18;;;10.40;99.90;;;;;;5010159;28;20034;-83
2021/12/13 13:27:20;;;;;;;12.20;8.10;;;10.50;99.90;;;;;;5010571;28;20481;-82
2021/12/13 13:29:45;;;;;;;13.23;8.30;;;10.50;99.90;;;;;;4993938;28;20496;-82